Time;durP1;ratioP1;P1;durP2;ratioP2;P2;SDS_P1;SDS_P2;PMS_P1;PMS_P2;Temp;Humidity;BMP_temperature;BMP_pressure;BME280_temperature;BME280_humidity;BME280_pressure;Samples;Min_cycle;Max_cycle;Signal;HPM_P1;HPM_P2
2021/08/25 00:01:26;;;;;;;6.30;3.00;;;15.00;99.90;;;;;;5071672;28;20047;-81
2021/08/25 00:03:52;;;;;;;7.80;3.72;;;15.10;99.90;;;;;;5067932;28;20412;-81
2021/08/25 00:06:18;;;;;;;6.32;3.42;;;15.00;99.90;;;;;;5063589;28;20056;-80
2021/08/25 00:08:44;;;;;;;5.35;3.08;;;15.00;99.90;;;;;;5063877;28;20124;-79
2021/08/25 00:11:10;;;;;;;13.93;4.07;;;14.90;99.90;;;;;;5064016;28;20092;-80
2021/08/25 00:13:37;;;;;;;14.38;4.10;;;14.80;99.90;;;;;;5065565;28;20063;-81
2021/08/25 00:16:05;;;;;;;15.15;3.60;;;14.90;99.90;;;;;;5064295;28;20084;-79
2021/08/25 00:18:31;;;;;;;8.48;3.97;;;14.90;99.90;;;;;;5063858;28;20059;-79
2021/08/25 00:20:58;;;;;;;7.97;3.63;;;14.90;99.90;;;;;;5065032;28;20036;-77
2021/08/25 00:23:24;;;;;;;8.52;3.67;;;14.80;99.90;;;;;;5064904;28;20056;-77
2021/08/25 00:25:53;;;;;;;10.13;4.50;;;14.80;99.90;;;;;;5065037;28;20021;-78
2021/08/25 00:28:19;;;;;;;7.53;4.03;;;14.80;99.90;;;;;;5065247;28;20085;-78
2021/08/25 00:30:45;;;;;;;6.72;3.38;;;14.80;99.90;;;;;;5064728;28;20025;-79
2021/08/25 00:33:11;;;;;;;7.32;4.18;;;14.60;99.90;;;;;;5065058;28;20385;-80
2021/08/25 00:35:37;;;;;;;10.07;4.28;;;14.70;99.90;;;;;;5063636;28;20109;-80
2021/08/25 00:38:03;;;;;;;8.32;3.85;;;14.70;99.90;;;;;;5063780;28;20041;-80
2021/08/25 00:40:29;;;;;;;6.53;3.60;;;14.70;99.90;;;;;;5063731;28;20501;-81
2021/08/25 00:43:07;;;;;;;9.00;3.05;;;14.70;99.90;;;;;;5064900;28;20090;-80
2021/08/25 00:45:44;;;;;;;6.68;3.65;;;14.60;99.90;;;;;;5063722;28;20028;-79
2021/08/25 00:48:12;;;;;;;25.60;4.30;;;14.60;99.90;;;;;;5065010;28;20051;-80
2021/08/25 00:50:41;;;;;;;13.85;5.40;;;14.60;99.90;;;;;;5063402;28;20021;-80
2021/08/25 00:53:08;;;;;;;8.77;4.45;;;14.60;99.90;;;;;;5064762;28;20036;-79
2021/08/25 00:55:43;;;;;;;15.00;4.20;;;14.70;99.90;;;;;;5063613;28;20029;-78
2021/08/25 00:58:10;;;;;;;6.57;3.53;;;14.50;99.90;;;;;;5063051;28;20105;-80
2021/08/25 01:00:54;;;;;;;5.97;3.28;;;14.50;99.90;;;;;;5064571;28;20028;-80
2021/08/25 01:03:27;;;;;;;9.95;3.95;;;14.50;99.90;;;;;;5063093;28;20037;-79
2021/08/25 01:05:56;;;;;;;8.02;3.63;;;14.50;99.90;;;;;;5063989;28;20037;-79
2021/08/25 01:08:23;;;;;;;9.25;4.43;;;14.50;99.90;;;;;;5064469;28;20032;-80
2021/08/25 01:10:48;;;;;;;8.43;3.65;;;14.50;99.90;;;;;;5064604;28;20033;-80
2021/08/25 01:13:14;;;;;;;7.63;4.18;;;14.40;99.90;;;;;;5064378;28;20025;-80
2021/08/25 01:15:41;;;;;;;6.07;3.70;;;14.50;99.90;;;;;;5064249;28;20024;-80
2021/08/25 01:18:16;;;;;;;7.32;4.03;;;14.40;99.90;;;;;;5064515;28;20051;-80
2021/08/25 01:20:42;;;;;;;;;;;14.40;99.90;;;;;;5063514;28;20024;-79
2021/08/25 01:23:12;;;;;;;11.13;4.72;;;14.30;99.90;;;;;;5064452;28;19924;-81
2021/08/25 01:25:39;;;;;;;11.70;5.22;;;14.40;99.90;;;;;;5063092;28;20040;-79
2021/08/25 01:28:09;;;;;;;8.88;4.95;;;14.30;99.90;;;;;;5064477;28;20025;-78
2021/08/25 01:30:38;;;;;;;11.50;5.90;;;14.30;99.90;;;;;;5063239;28;20124;-79
2021/08/25 01:33:06;;;;;;;9.48;4.90;;;14.30;99.90;;;;;;5063155;28;20393;-79
2021/08/25 01:35:42;;;;;;;9.63;4.63;;;14.30;99.90;;;;;;5062942;28;20025;-79
2021/08/25 01:38:31;;;;;;;8.43;4.43;;;14.30;99.90;;;;;;5062516;28;20033;-78
2021/08/25 01:40:57;;;;;;;11.30;5.20;;;14.30;99.90;;;;;;5064337;28;20084;-79
2021/08/25 01:43:23;;;;;;;11.23;4.72;;;14.20;99.90;;;;;;5066854;28;20095;-79
2021/08/25 01:45:48;;;;;;;13.60;5.85;;;14.20;99.90;;;;;;5079470;28;20025;-79
2021/08/25 01:48:15;;;;;;;10.32;4.85;;;14.20;99.90;;;;;;5047288;28;20033;-79
2021/08/25 01:50:42;;;;;;;10.70;4.53;;;14.20;99.90;;;;;;5046906;28;20030;-79
2021/08/25 01:53:08;;;;;;;11.27;4.78;;;14.30;99.90;;;;;;5046981;28;20030;-79
2021/08/25 01:55:36;;;;;;;10.05;5.47;;;14.20;99.90;;;;;;5048456;28;20370;-79
2021/08/25 01:58:06;;;;;;;6.60;4.25;;;14.20;99.90;;;;;;5047270;28;20026;-80
2021/08/25 02:00:35;;;;;;;16.45;5.53;;;14.20;99.90;;;;;;5051195;28;20025;-79
2021/08/25 02:03:07;;;;;;;15.90;5.03;;;14.20;99.90;;;;;;5068224;28;20374;-79
2021/08/25 02:05:33;;;;;;;8.35;5.03;;;14.20;99.90;;;;;;5066901;28;20025;-79
2021/08/25 02:07:59;;;;;;;10.07;4.80;;;14.20;99.90;;;;;;5083410;28;20074;-78
2021/08/25 02:10:24;;;;;;;14.32;5.55;;;14.10;99.90;;;;;;5083016;28;20032;-78
2021/08/25 02:12:50;;;;;;;11.20;6.15;;;14.10;99.90;;;;;;5066498;28;20116;-79
2021/08/25 02:15:15;;;;;;;10.95;5.57;;;14.00;99.90;;;;;;5066421;28;20033;-79
2021/08/25 02:17:42;;;;;;;12.38;5.32;;;14.10;99.90;;;;;;5067358;28;20060;-80
2021/08/25 02:20:09;;;;;;;11.45;5.63;;;14.00;99.90;;;;;;5067875;28;20025;-78
2021/08/25 02:22:41;;;;;;;9.95;5.20;;;14.00;99.90;;;;;;5065198;28;20098;-79
2021/08/25 02:25:10;;;;;;;9.98;5.38;;;14.00;99.90;;;;;;5073369;28;20041;-79
2021/08/25 02:27:36;;;;;;;10.82;4.97;;;14.00;99.90;;;;;;5046372;28;20502;-80
2021/08/25 02:30:03;;;;;;;8.85;4.97;;;13.90;99.90;;;;;;5046019;28;20034;-77
2021/08/25 02:32:33;;;;;;;11.55;5.10;;;14.00;99.90;;;;;;5050948;28;20031;-78
2021/08/25 02:34:59;;;;;;;8.52;4.78;;;14.00;99.90;;;;;;5066331;28;20033;-78
2021/08/25 02:37:24;;;;;;;7.82;4.68;;;14.00;99.90;;;;;;5065599;28;20115;-77
2021/08/25 02:39:50;;;;;;;9.40;4.57;;;13.90;99.90;;;;;;5067521;28;20036;-78
2021/08/25 02:42:18;;;;;;;7.63;4.32;;;14.00;99.90;;;;;;5066049;28;20037;-81
2021/08/25 02:44:44;;;;;;;10.23;5.15;;;13.90;99.90;;;;;;5065647;28;20035;-79
2021/08/25 02:47:12;;;;;;;8.20;4.80;;;13.80;99.90;;;;;;5066758;28;20028;-79
2021/08/25 02:49:38;;;;;;;13.90;5.70;;;13.80;99.90;;;;;;5065359;28;20070;-80
2021/08/25 02:52:04;;;;;;;11.73;5.30;;;13.80;99.90;;;;;;5065627;28;20029;-79
2021/08/25 02:54:30;;;;;;;12.00;5.90;;;13.80;99.90;;;;;;5066449;28;20032;-78
2021/08/25 02:56:55;;;;;;;17.73;5.38;;;13.70;99.90;;;;;;5065358;28;20060;-78
2021/08/25 02:59:21;;;;;;;12.80;7.15;;;13.70;99.90;;;;;;5066825;28;20036;-78
2021/08/25 03:01:48;;;;;;;14.95;6.63;;;13.60;99.90;;;;;;5066644;28;20020;-78
2021/08/25 03:04:13;;;;;;;18.90;7.25;;;13.60;99.90;;;;;;5066466;28;20041;-79
2021/08/25 03:06:39;;;;;;;12.18;6.22;;;13.60;99.90;;;;;;5065070;28;20025;-79
2021/08/25 03:09:05;;;;;;;28.08;7.15;;;13.60;99.90;;;;;;5066526;28;20029;-79
2021/08/25 03:11:33;;;;;;;13.45;6.57;;;13.60;99.90;;;;;;5066577;28;20131;-79
2021/08/25 03:13:59;;;;;;;14.93;6.43;;;13.50;99.90;;;;;;5065502;28;20033;-79
2021/08/25 03:16:24;;;;;;;19.27;7.25;;;13.60;99.90;;;;;;5064976;28;20067;-81
2021/08/25 03:18:50;;;;;;;17.17;6.80;;;13.60;99.90;;;;;;5065036;28;20021;-80
2021/08/25 03:21:15;;;;;;;10.68;6.03;;;13.40;99.90;;;;;;5065007;28;20035;-79
2021/08/25 03:23:41;;;;;;;14.50;6.90;;;13.50;99.90;;;;;;5064738;28;20044;-78
2021/08/25 03:26:08;;;;;;;13.95;7.07;;;13.50;99.90;;;;;;5066652;28;20440;-80
2021/08/25 03:28:34;;;;;;;11.75;6.53;;;13.50;99.90;;;;;;5065064;28;20140;-79
2021/08/25 03:30:59;;;;;;;10.15;6.10;;;13.50;99.90;;;;;;5066334;28;20600;-79
2021/08/25 03:33:25;;;;;;;13.57;5.53;;;13.40;99.90;;;;;;5064753;28;20025;-79
2021/08/25 03:35:51;;;;;;;12.77;5.38;;;13.40;99.90;;;;;;5062934;28;20021;-76
2021/08/25 03:38:17;;;;;;;12.07;5.78;;;13.40;99.90;;;;;;5064473;28;20088;-76
2021/08/25 03:40:42;;;;;;;9.70;5.32;;;13.30;99.90;;;;;;5066312;28;20025;-77
2021/08/25 03:43:10;;;;;;;14.00;6.68;;;13.40;99.90;;;;;;5066058;28;20039;-77
2021/08/25 03:45:39;;;;;;;12.60;6.47;;;13.40;99.90;;;;;;5065941;28;20036;-77
2021/08/25 03:48:06;;;;;;;11.35;6.15;;;13.40;99.90;;;;;;5081486;28;20029;-77
2021/08/25 03:50:32;;;;;;;13.90;6.43;;;13.40;99.90;;;;;;5065907;28;20028;-77
2021/08/25 03:52:57;;;;;;;14.32;6.78;;;13.30;99.90;;;;;;5064528;28;20037;-77
2021/08/25 03:55:23;;;;;;;15.23;6.35;;;13.30;99.90;;;;;;5065662;28;20032;-78
2021/08/25 03:57:49;;;;;;;15.10;6.78;;;13.30;99.90;;;;;;5064466;28;20031;-78
2021/08/25 04:00:15;;;;;;;13.93;6.55;;;13.30;99.90;;;;;;5065449;28;20114;-78
2021/08/25 04:02:42;;;;;;;15.88;7.50;;;13.30;99.90;;;;;;5065557;28;20033;-75
2021/08/25 04:05:09;;;;;;;15.88;7.68;;;13.30;99.90;;;;;;5063573;28;20037;-76
2021/08/25 04:07:37;;;;;;;17.73;7.85;;;13.30;99.90;;;;;;5064258;28;20033;-77
2021/08/25 04:10:05;;;;;;;21.08;7.72;;;13.30;99.90;;;;;;5064773;28;20119;-77
2021/08/25 04:12:30;;;;;;;16.23;7.38;;;13.30;99.90;;;;;;5063236;28;20047;-77
2021/08/25 04:14:56;;;;;;;13.52;7.15;;;13.30;99.90;;;;;;5063894;28;20021;-76
2021/08/25 04:17:22;;;;;;;18.55;7.47;;;13.30;99.90;;;;;;5064673;28;20606;-76
2021/08/25 04:19:48;;;;;;;13.88;6.65;;;13.40;99.90;;;;;;5063358;28;20395;-76
2021/08/25 04:22:14;;;;;;;16.33;8.48;;;13.40;99.90;;;;;;5064660;28;20028;-76
2021/08/25 04:24:39;;;;;;;19.10;7.70;;;13.40;99.90;;;;;;5064316;28;20028;-78
2021/08/25 04:27:07;;;;;;;15.60;8.35;;;13.40;99.90;;;;;;5064529;28;20063;-77
2021/08/25 04:29:33;;;;;;;20.88;8.63;;;13.40;99.90;;;;;;5064809;28;20067;-76
2021/08/25 04:31:59;;;;;;;22.17;9.05;;;13.40;99.90;;;;;;5065210;28;20074;-75
2021/08/25 04:34:24;;;;;;;16.73;8.27;;;13.40;99.90;;;;;;5064855;28;20083;-74
2021/08/25 04:36:50;;;;;;;20.92;8.75;;;13.50;99.90;;;;;;5064975;28;20023;-74
2021/08/25 04:39:15;;;;;;;21.02;9.80;;;13.50;99.90;;;;;;5063505;28;20025;-75
2021/08/25 04:41:42;;;;;;;19.58;9.20;;;13.50;99.90;;;;;;5064517;28;20025;-75
2021/08/25 04:44:08;;;;;;;22.70;9.57;;;13.60;99.90;;;;;;5064833;28;20045;-76
2021/08/25 04:46:34;;;;;;;21.35;9.50;;;13.60;99.90;;;;;;5063804;28;20024;-76
2021/08/25 04:49:03;;;;;;;20.55;9.05;;;13.60;99.90;;;;;;5063806;28;20029;-77
2021/08/25 04:51:29;;;;;;;13.98;7.45;;;13.70;99.90;;;;;;5063562;28;20370;-76
2021/08/25 04:53:54;;;;;;;21.13;8.70;;;13.80;99.90;;;;;;5063509;28;20041;-77
2021/08/25 04:56:20;;;;;;;19.52;9.15;;;13.80;99.90;;;;;;5063819;28;20028;-77
2021/08/25 04:58:46;;;;;;;20.70;7.82;;;13.80;99.90;;;;;;5064651;28;20070;-76
2021/08/25 05:01:11;;;;;;;23.85;9.15;;;13.90;99.90;;;;;;5064313;28;20025;-77
2021/08/25 05:03:37;;;;;;;22.77;9.40;;;13.90;99.90;;;;;;5064550;28;20045;-77
2021/08/25 05:06:11;;;;;;;16.52;8.88;;;14.00;99.90;;;;;;5064705;28;20021;-78
2021/08/25 05:08:38;;;;;;;20.50;8.77;;;14.00;99.90;;;;;;5064634;28;20044;-79
2021/08/25 05:11:04;;;;;;;18.92;8.20;;;14.00;99.90;;;;;;5063062;28;20036;-76
2021/08/25 05:13:31;;;;;;;17.55;8.45;;;14.10;99.90;;;;;;5064597;28;20056;-76
2021/08/25 05:15:56;;;;;;;18.75;8.57;;;14.10;99.90;;;;;;5064467;28;20025;-77
2021/08/25 05:18:22;;;;;;;19.80;7.93;;;14.20;99.90;;;;;;5068406;28;20087;-77
2021/08/25 05:20:47;;;;;;;17.38;8.07;;;14.20;99.90;;;;;;5065760;28;20064;-76
2021/08/25 05:23:13;;;;;;;20.00;7.80;;;14.20;99.90;;;;;;5063844;28;20053;-74
2021/08/25 05:25:39;;;;;;;15.88;7.00;;;14.30;99.90;;;;;;5068153;28;20500;-76
2021/08/25 05:28:05;;;;;;;15.82;7.40;;;14.30;99.90;;;;;;5068620;28;20025;-76
2021/08/25 05:30:31;;;;;;;16.70;7.15;;;14.40;99.90;;;;;;5066845;28;20080;-75
2021/08/25 05:32:56;;;;;;;16.33;7.82;;;14.40;99.90;;;;;;5066261;28;20037;-76
2021/08/25 05:35:23;;;;;;;13.95;6.15;;;14.50;99.90;;;;;;5065077;28;20032;-73
2021/08/25 05:37:50;;;;;;;12.80;6.80;;;14.50;99.90;;;;;;5082904;28;20377;-77
2021/08/25 05:40:17;;;;;;;18.15;7.00;;;14.60;99.90;;;;;;5067958;28;20425;-76
2021/08/25 05:42:44;;;;;;;13.95;5.78;;;14.50;99.90;;;;;;5067937;28;20124;-76
2021/08/25 05:45:10;;;;;;;13.40;6.72;;;14.70;99.90;;;;;;5067841;28;20029;-77
2021/08/25 05:47:38;;;;;;;12.07;5.30;;;14.70;99.90;;;;;;5067396;28;20028;-77
2021/08/25 05:50:06;;;;;;;12.60;5.28;;;14.70;99.90;;;;;;5067555;28;20085;-77
2021/08/25 05:52:35;;;;;;;13.07;6.28;;;14.80;99.90;;;;;;5067924;28;20021;-77
2021/08/25 05:55:00;;;;;;;12.82;5.60;;;14.80;99.90;;;;;;5067939;28;20083;-76
2021/08/25 05:57:26;;;;;;;13.88;5.82;;;14.70;99.90;;;;;;5068026;28;20029;-77
2021/08/25 05:59:52;;;;;;;10.63;5.85;;;14.80;99.90;;;;;;5066326;28;20025;-78
2021/08/25 06:02:17;;;;;;;13.25;6.38;;;14.80;99.90;;;;;;5066203;28;20033;-77
2021/08/25 06:04:43;;;;;;;14.20;6.30;;;14.90;99.90;;;;;;5064242;28;20025;-77
2021/08/25 06:07:11;;;;;;;11.65;5.93;;;14.90;99.90;;;;;;5066560;28;20181;-77
2021/08/25 06:09:38;;;;;;;17.83;6.38;;;15.00;99.90;;;;;;5062466;28;20064;-77
2021/08/25 06:12:06;;;;;;;9.20;5.13;;;15.00;99.90;;;;;;5046264;28;20083;-76
2021/08/25 06:14:38;;;;;;;16.48;5.55;;;15.00;99.90;;;;;;5046096;28;20441;-77
2021/08/25 06:17:04;;;;;;;9.68;5.28;;;15.00;99.90;;;;;;5052184;28;20064;-77
2021/08/25 06:19:29;;;;;;;10.80;5.30;;;15.10;99.90;;;;;;5067679;28;20040;-76
2021/08/25 06:21:55;;;;;;;12.82;5.90;;;15.20;99.90;;;;;;5067377;28;20033;-77
2021/08/25 06:24:20;;;;;;;12.57;5.10;;;15.20;99.90;;;;;;5060544;28;20080;-75
2021/08/25 06:26:46;;;;;;;10.35;5.63;;;15.20;99.90;;;;;;5075851;28;20033;-75
2021/08/25 06:29:11;;;;;;;11.85;5.25;;;15.30;99.90;;;;;;5051897;28;20022;-74
2021/08/25 06:31:43;;;;;;;12.95;4.38;;;15.20;99.90;;;;;;5072684;28;20028;-76
2021/08/25 06:34:08;;;;;;;12.60;4.95;;;15.30;99.90;;;;;;5052313;28;20041;-76
2021/08/25 06:36:43;;;;;;;15.20;5.07;;;15.50;99.90;;;;;;5054366;28;20040;-74
2021/08/25 06:39:09;;;;;;;10.73;5.40;;;15.40;99.90;;;;;;5047356;28;20030;-77
2021/08/25 06:41:35;;;;;;;7.93;4.57;;;15.50;99.90;;;;;;5066417;28;20033;-77
2021/08/25 06:44:01;;;;;;;10.50;4.32;;;15.50;99.90;;;;;;5064854;28;20398;-78
2021/08/25 06:46:26;;;;;;;9.73;4.15;;;15.60;99.90;;;;;;5056406;28;20033;-76
2021/08/25 06:48:52;;;;;;;19.38;4.65;;;15.60;99.90;;;;;;5047458;28;20037;-75
2021/08/25 06:51:21;;;;;;;6.22;3.80;;;15.70;99.90;;;;;;5072350;28;20033;-76
2021/08/25 06:53:46;;;;;;;17.65;4.50;;;15.90;99.90;;;;;;5053567;28;20057;-77
2021/08/25 06:56:12;;;;;;;5.88;3.83;;;15.90;99.90;;;;;;5061244;28;20025;-79
2021/08/25 06:58:39;;;;;;;9.98;4.22;;;15.90;99.90;;;;;;5061016;28;20024;-78
2021/08/25 07:01:04;;;;;;;7.95;3.97;;;15.90;99.90;;;;;;5053015;28;20473;-76
2021/08/25 07:03:30;;;;;;;8.68;3.63;;;16.00;99.90;;;;;;5049953;28;20490;-72
2021/08/25 07:05:55;;;;;;;8.95;3.63;;;16.00;99.90;;;;;;5046586;28;20032;-74
2021/08/25 07:08:21;;;;;;;4.95;2.95;;;16.10;99.90;;;;;;5046511;28;20026;-75
2021/08/25 07:10:47;;;;;;;9.85;3.55;;;16.20;99.90;;;;;;5054659;28;20131;-76
2021/08/25 07:13:12;;;;;;;6.68;2.95;;;16.20;99.90;;;;;;5065163;28;20112;-76
2021/08/25 07:15:38;;;;;;;12.88;3.50;;;16.20;99.90;;;;;;5081897;28;20021;-76
2021/08/25 07:18:13;;;;;;;9.07;3.40;;;16.30;99.90;;;;;;5064651;28;20059;-77
2021/08/25 07:20:40;;;;;;;6.40;2.35;;;16.40;99.90;;;;;;5066323;28;20021;-73
2021/08/25 07:23:12;;;;;;;6.03;2.35;;;16.50;99.90;;;;;;5064556;28;20072;-76
2021/08/25 07:25:42;;;;;;;5.25;2.20;;;16.40;99.90;;;;;;5066593;28;20029;-75
2021/08/25 07:28:11;;;;;;;5.05;2.05;;;16.60;99.90;;;;;;5066386;28;20025;-74
2021/08/25 07:30:36;;;;;;;2.70;1.75;;;16.60;99.90;;;;;;5064030;28;20123;-73
2021/08/25 07:33:13;;;;;;;3.40;1.77;;;16.70;99.90;;;;;;5071503;28;20394;-74
2021/08/25 07:35:46;;;;;;;2.60;1.30;;;16.70;99.90;;;;;;5046332;28;20034;-74
2021/08/25 07:38:13;;;;;;;3.95;2.03;;;16.80;99.90;;;;;;5059724;28;20533;-72
2021/08/25 07:40:39;;;;;;;3.78;1.92;;;16.80;99.90;;;;;;5064636;28;20064;-76
2021/08/25 07:43:18;;;;;;;4.82;1.95;;;16.90;99.90;;;;;;5062957;28;20036;-75
2021/08/25 07:45:46;;;;;;;2.15;1.23;;;17.00;99.90;;;;;;5064188;28;20039;-74
2021/08/25 07:48:11;;;;;;;3.08;1.55;;;17.10;99.90;;;;;;5062601;28;20021;-73
2021/08/25 07:50:37;;;;;;;3.75;1.77;;;17.10;99.90;;;;;;5063879;28;20100;-72
2021/08/25 07:53:03;;;;;;;2.70;1.30;;;17.20;99.90;;;;;;5063913;28;20021;-77
2021/08/25 07:55:29;;;;;;;3.15;1.63;;;17.30;99.90;;;;;;5063742;28;20048;-72
2021/08/25 07:57:55;;;;;;;5.25;1.60;;;17.40;99.90;;;;;;5063553;28;20079;-72
2021/08/25 08:00:20;;;;;;;5.85;1.38;;;17.40;99.90;;;;;;5062395;28;20389;-73
2021/08/25 08:02:46;;;;;;;7.65;1.63;;;17.50;99.90;;;;;;5064696;28;20385;-71
2021/08/25 08:05:12;;;;;;;8.23;1.83;;;17.60;99.90;;;;;;5064028;28;20108;-71
2021/08/25 08:07:39;;;;;;;7.35;1.70;;;17.60;99.90;;;;;;5064258;28;20054;-74
2021/08/25 08:10:05;;;;;;;2.53;1.25;;;17.60;99.90;;;;;;5065594;28;20036;-77
2021/08/25 08:12:31;;;;;;;2.95;1.42;;;17.70;99.90;;;;;;5065760;28;20040;-74
2021/08/25 08:14:56;;;;;;;1.35;1.10;;;17.70;99.90;;;;;;5065440;28;20477;-74
2021/08/25 08:17:23;;;;;;;2.60;1.40;;;17.80;99.90;;;;;;5065221;28;20561;-74
2021/08/25 08:19:56;;;;;;;2.20;1.08;;;17.90;99.90;;;;;;5063248;28;20393;-76
2021/08/25 08:22:21;;;;;;;3.63;0.95;;;17.90;99.90;;;;;;5063753;28;20047;-74
2021/08/25 08:24:47;;;;;;;1.17;0.80;;;18.00;99.90;;;;;;5063343;28;20394;-70
2021/08/25 08:27:12;;;;;;;1.70;0.90;;;18.00;99.90;;;;;;5064778;28;20056;-71
2021/08/25 08:29:41;;;;;;;2.95;1.05;;;18.10;99.90;;;;;;5064787;28;20020;-73
2021/08/25 08:32:10;;;;;;;0.90;0.65;;;18.30;99.90;;;;;;5065141;28;20052;-74
2021/08/25 08:34:37;;;;;;;1.63;0.90;;;18.30;99.90;;;;;;5064841;28;20031;-72
2021/08/25 08:37:04;;;;;;;1.02;0.50;;;18.40;99.90;;;;;;5065086;28;20378;-74
2021/08/25 08:39:30;;;;;;;3.25;1.00;;;18.50;99.90;;;;;;5065160;28;20036;-75
2021/08/25 08:41:56;;;;;;;2.42;0.77;;;18.60;99.90;;;;;;5063560;28;20474;-75
2021/08/25 08:44:24;;;;;;;1.58;0.88;;;18.70;99.90;;;;;;5064885;28;20044;-72
2021/08/25 08:46:50;;;;;;;1.45;0.65;;;18.70;99.90;;;;;;5063372;28;20028;-73
2021/08/25 08:49:17;;;;;;;1.75;0.70;;;18.80;99.90;;;;;;5064872;28;20064;-72
2021/08/25 08:51:42;;;;;;;1.13;0.60;;;19.00;99.90;;;;;;5064321;28;20027;-75
2021/08/25 08:54:08;;;;;;;0.73;0.60;;;19.00;99.90;;;;;;5064994;28;20057;-76
2021/08/25 08:56:34;;;;;;;0.50;0.35;;;19.00;99.90;;;;;;5064842;28;20025;-76
2021/08/25 08:59:01;;;;;;;4.03;0.60;;;19.00;99.90;;;;;;5064633;28;20036;-72
2021/08/25 09:01:28;;;;;;;0.75;0.47;;;19.00;99.90;;;;;;5063929;28;20042;-74
2021/08/25 09:03:54;;;;;;;1.35;0.55;;;19.10;99.90;;;;;;5064572;28;20047;-75
2021/08/25 09:06:21;;;;;;;1.60;0.52;;;19.20;99.90;;;;;;5064756;28;20032;-75
2021/08/25 09:08:57;;;;;;;1.00;0.63;;;19.20;99.90;;;;;;5063134;28;20089;-73
2021/08/25 09:11:22;;;;;;;1.10;0.80;;;19.30;99.90;;;;;;5064180;28;20519;-76
2021/08/25 09:13:50;;;;;;;1.85;0.77;;;19.20;99.90;;;;;;5063124;28;20059;-74
2021/08/25 09:16:35;;;;;;;0.70;0.35;;;19.30;99.90;;;;;;5064391;28;20021;-75
2021/08/25 09:19:06;;;;;;;1.98;0.75;;;19.50;99.90;;;;;;5064667;28;20040;-72
2021/08/25 09:21:43;;;;;;;2.53;0.85;;;19.60;99.90;;;;;;5064470;28;20036;-72
2021/08/25 09:24:10;;;;;;;1.83;0.57;;;19.70;99.90;;;;;;5079879;28;20049;-73
2021/08/25 09:26:38;;;;;;;0.75;0.40;;;19.70;99.90;;;;;;5064484;28;20036;-74
2021/08/25 09:29:21;;;;;;;0.80;0.35;;;19.60;99.90;;;;;;5064551;28;20359;-73
2021/08/25 09:31:48;;;;;;;0.68;0.28;;;19.50;99.90;;;;;;5079746;28;20029;-74
2021/08/25 09:34:31;;;;;;;1.60;0.70;;;19.60;99.90;;;;;;5064057;28;20029;-72
2021/08/25 09:37:15;;;;;;;0.68;0.30;;;19.60;99.90;;;;;;5064490;28;20059;-72
2021/08/25 09:39:46;;;;;;;1.25;0.50;;;19.60;99.90;;;;;;5064560;28;20029;-74
2021/08/25 09:42:16;;;;;;;0.63;0.30;;;19.60;99.90;;;;;;5064443;28;20040;-73
2021/08/25 09:44:43;;;;;;;2.63;0.47;;;19.70;99.90;;;;;;5064288;28;20041;-74
2021/08/25 09:47:08;;;;;;;1.67;0.68;;;19.90;99.90;;;;;;5064307;28;20025;-75
2021/08/25 09:49:35;;;;;;;1.40;0.38;;;20.10;99.90;;;;;;5064014;28;20064;-71
2021/08/25 09:52:01;;;;;;;0.52;0.30;;;20.10;99.90;;;;;;5064342;28;20029;-75
2021/08/25 09:54:26;;;;;;;0.30;0.28;;;20.20;99.90;;;;;;5079838;28;20426;-73
2021/08/25 09:56:53;;;;;;;0.17;0.17;;;20.20;99.90;;;;;;5064179;28;20089;-71
2021/08/25 09:59:20;;;;;;;1.95;0.38;;;20.10;99.90;;;;;;5079699;28;20039;-76
2021/08/25 10:01:46;;;;;;;4.63;0.50;;;20.10;99.90;;;;;;5079443;28;20032;-75
2021/08/25 10:04:16;;;;;;;1.38;0.52;;;20.20;99.90;;;;;;5065682;28;20073;-75
2021/08/25 10:06:49;;;;;;;0.88;0.40;;;20.30;99.90;;;;;;5067591;28;20021;-76
2021/08/25 10:09:16;;;;;;;2.23;0.43;;;20.20;99.90;;;;;;5083344;28;20123;-75
2021/08/25 10:11:59;;;;;;;2.83;0.60;;;20.00;99.90;;;;;;5067894;28;20351;-76
2021/08/25 10:14:30;;;;;;;7.47;0.35;;;19.90;99.90;;;;;;5067891;28;20029;-73
2021/08/25 10:16:55;;;;;;;0.45;0.28;;;19.90;99.90;;;;;;5067544;28;20049;-72
2021/08/25 10:19:26;;;;;;;2.15;0.70;;;20.10;99.90;;;;;;5067398;28;20029;-73
2021/08/25 10:21:56;;;;;;;1.65;0.45;;;20.20;99.90;;;;;;5067393;28;20021;-73
2021/08/25 10:24:23;;;;;;;1.48;0.50;;;20.20;99.90;;;;;;5067243;28;20040;-68
2021/08/25 10:26:57;;;;;;;1.38;0.77;;;20.00;99.90;;;;;;5067555;28;20086;-71
2021/08/25 10:29:24;;;;;;;1.80;0.65;;;19.80;99.90;;;;;;5082841;28;20033;-73
2021/08/25 10:31:49;;;;;;;0.80;0.40;;;19.70;99.90;;;;;;5067264;28;20036;-70
2021/08/25 10:34:17;;;;;;;3.63;0.22;;;19.70;99.90;;;;;;5067378;28;20053;-72
2021/08/25 10:36:43;;;;;;;0.70;0.45;;;19.60;99.90;;;;;;5067285;28;20025;-74
2021/08/25 10:39:31;;;;;;;1.23;0.32;;;19.70;99.90;;;;;;5067341;28;20535;-72
2021/08/25 10:41:58;;;;;;;1.40;0.70;;;19.60;99.90;;;;;;5067522;28;20033;-72
2021/08/25 10:44:39;;;;;;;0.47;0.30;;;19.50;99.90;;;;;;5082439;28;20094;-71
2021/08/25 10:47:12;;;;;;;0.40;0.20;;;19.50;99.90;;;;;;5082398;28;20066;-75
2021/08/25 10:49:44;;;;;;;1.08;0.15;;;19.70;99.90;;;;;;5067141;28;20474;-72
2021/08/25 10:52:16;;;;;;;2.65;0.20;;;20.00;99.90;;;;;;5067059;28;20029;-76
2021/08/25 10:54:47;;;;;;;5.68;0.22;;;20.30;99.90;;;;;;5066944;28;20032;-71
2021/08/25 10:57:25;;;;;;;0.20;0.17;;;20.50;99.90;;;;;;5066918;28;20064;-74
2021/08/25 10:59:51;;;;;;;0.20;0.20;;;20.50;99.90;;;;;;5067169;28;20035;-72
2021/08/25 11:02:17;;;;;;;0.60;0.30;;;20.80;99.90;;;;;;5066749;28;20064;-70
2021/08/25 11:04:43;;;;;;;0.88;0.50;;;20.90;99.90;;;;;;5066686;28;20048;-71
2021/08/25 11:07:13;;;;;;;0.77;0.40;;;20.80;99.90;;;;;;5082227;28;20029;-70
2021/08/25 11:09:50;;;;;;;0.52;0.15;;;20.60;99.90;;;;;;5067025;28;20036;-74
2021/08/25 11:12:21;;;;;;;0.88;0.43;;;20.40;99.90;;;;;;5067002;28;20029;-73
2021/08/25 11:14:49;;;;;;;0.38;0.30;;;20.20;99.90;;;;;;5066460;28;20085;-74
2021/08/25 11:17:20;;;;;;;0.38;0.20;;;20.30;99.90;;;;;;5066330;28;20060;-73
2021/08/25 11:19:47;;;;;;;0.20;0.20;;;20.30;99.90;;;;;;5066277;28;20021;-71
2021/08/25 11:22:15;;;;;;;5.15;0.40;;;20.30;99.90;;;;;;5064797;28;20025;-68
2021/08/25 11:24:44;;;;;;;0.40;0.20;;;20.30;99.90;;;;;;5066199;28;20048;-71
2021/08/25 11:27:29;;;;;;;3.28;0.43;;;20.20;99.90;;;;;;5066433;28;20097;-73
2021/08/25 11:30:01;;;;;;;5.13;0.60;;;20.10;99.90;;;;;;5066286;28;20061;-70
2021/08/25 11:32:27;;;;;;;0.10;0.10;;;20.00;99.90;;;;;;5066301;28;20033;-71
2021/08/25 11:34:53;;;;;;;8.63;0.52;;;19.80;99.90;;;;;;5066309;28;20052;-70
2021/08/25 11:37:22;;;;;;;0.43;0.20;;;19.70;99.90;;;;;;5066094;28;20037;-73
2021/08/25 11:40:05;;;;;;;1.02;0.40;;;19.50;99.90;;;;;;5066384;28;20081;-72
2021/08/25 11:42:33;;;;;;;0.25;0.20;;;19.50;99.90;;;;;;5066254;28;20082;-72
2021/08/25 11:45:19;;;;;;;0.93;0.20;;;19.40;99.90;;;;;;5065732;28;20408;-70
2021/08/25 11:47:55;;;;;;;0.43;0.25;;;19.50;99.90;;;;;;5066010;28;20036;-70
2021/08/25 11:50:23;;;;;;;1.25;0.40;;;19.60;99.90;;;;;;5066105;28;20040;-72
2021/08/25 11:52:50;;;;;;;4.95;0.85;;;19.70;99.90;;;;;;5065806;28;20128;-72
2021/08/25 11:55:16;;;;;;;4.43;0.30;;;19.80;99.90;;;;;;5081167;28;20036;-70
2021/08/25 11:57:46;;;;;;;0.20;0.20;;;19.90;99.90;;;;;;5065911;28;20025;-71
2021/08/25 12:00:17;;;;;;;3.00;0.75;;;19.90;99.90;;;;;;5065664;28;20021;-72
2021/08/25 12:03:01;;;;;;;1.77;0.38;;;19.90;99.90;;;;;;5081174;28;20025;-73
2021/08/25 12:05:35;;;;;;;;;;;20.00;99.90;;;;;;5066160;28;20045;-71
2021/08/25 12:08:09;;;;;;;13.88;0.35;;;19.90;99.90;;;;;;5065674;28;19911;-75
2021/08/25 12:10:36;;;;;;;;;;;19.90;99.90;;;;;;5061502;28;20037;-73
2021/08/25 12:13:03;;;;;;;0.22;0.10;;;19.90;99.90;;;;;;5064465;28;20022;-74
2021/08/25 12:15:47;;;;;;;4.03;0.25;;;19.80;99.90;;;;;;5063983;28;20493;-73
2021/08/25 12:18:18;;;;;;;0.52;0.20;;;19.80;99.90;;;;;;5064509;28;20045;-73
2021/08/25 12:20:46;;;;;;;1.05;0.30;;;19.90;99.90;;;;;;5064573;28;20061;-70
2021/08/25 12:23:14;;;;;;;2.35;0.50;;;19.90;99.90;;;;;;5063322;28;20045;-75
2021/08/25 12:25:47;;;;;;;0.75;0.40;;;19.80;99.90;;;;;;5065029;28;20071;-70
2021/08/25 12:28:16;;;;;;;3.70;0.45;;;19.80;99.90;;;;;;5080385;28;20048;-73
2021/08/25 12:30:43;;;;;;;3.42;0.38;;;19.70;99.90;;;;;;5080403;28;20028;-74
2021/08/25 12:33:10;;;;;;;0.63;0.35;;;19.70;99.90;;;;;;5064036;28;20458;-70
2021/08/25 12:35:39;;;;;;;0.20;0.17;;;19.90;99.90;;;;;;5065153;28;20021;-71
2021/08/25 12:38:06;;;;;;;9.75;1.33;;;20.10;99.90;;;;;;5065106;28;20032;-73
2021/08/25 12:40:34;;;;;;;3.20;0.45;;;20.20;99.90;;;;;;5065258;28;20039;-71
2021/08/25 12:43:01;;;;;;;1.27;0.50;;;20.40;99.90;;;;;;5064913;28;20048;-71
2021/08/25 12:45:29;;;;;;;4.90;0.30;;;20.30;99.90;;;;;;5065021;28;20021;-75
2021/08/25 12:47:56;;;;;;;0.30;0.10;;;20.20;99.90;;;;;;5064695;28;20036;-75